sensor_id;sensor_type;location;lat;lon;timestamp;P1;durP1;ratioP1;P2;durP2;ratioP2
77625;SDS011;66794;43.764;10.436;2023-06-26T00:01:06;12.15;;;7.03;;
77625;SDS011;66794;43.764;10.436;2023-06-26T00:03:53;9.45;;;6.75;;
77625;SDS011;66794;43.764;10.436;2023-06-26T00:06:39;9.68;;;6.60;;
77625;SDS011;66794;43.764;10.436;2023-06-26T00:09:24;10.15;;;6.75;;
77625;SDS011;66794;43.764;10.436;2023-06-26T00:12:10;10.40;;;6.90;;
77625;SDS011;66794;43.764;10.436;2023-06-26T00:14:56;9.75;;;6.57;;
77625;SDS011;66794;43.764;10.436;2023-06-26T00:17:42;11.48;;;6.45;;
77625;SDS011;66794;43.764;10.436;2023-06-26T00:20:27;7.55;;;6.45;;
77625;SDS011;66794;43.764;10.436;2023-06-26T00:23:13;6.90;;;5.85;;
77625;SDS011;66794;43.764;10.436;2023-06-26T00:26:02;9.07;;;5.97;;
77625;SDS011;66794;43.764;10.436;2023-06-26T00:28:49;6.93;;;6.10;;
77625;SDS011;66794;43.764;10.436;2023-06-26T00:31:35;8.25;;;6.32;;
77625;SDS011;66794;43.764;10.436;2023-06-26T00:34:21;8.32;;;5.70;;
77625;SDS011;66794;43.764;10.436;2023-06-26T00:37:06;8.43;;;5.80;;
77625;SDS011;66794;43.764;10.436;2023-06-26T00:39:52;7.45;;;5.85;;
77625;SDS011;66794;43.764;10.436;2023-06-26T00:42:38;6.95;;;5.80;;
77625;SDS011;66794;43.764;10.436;2023-06-26T00:45:24;7.18;;;5.85;;
77625;SDS011;66794;43.764;10.436;2023-06-26T00:48:10;9.63;;;5.32;;
77625;SDS011;66794;43.764;10.436;2023-06-26T00:50:59;9.32;;;5.70;;
77625;SDS011;66794;43.764;10.436;2023-06-26T00:53:45;7.40;;;5.53;;
77625;SDS011;66794;43.764;10.436;2023-06-26T00:56:31;9.48;;;5.75;;
77625;SDS011;66794;43.764;10.436;2023-06-26T00:59:18;7.95;;;6.05;;
77625;SDS011;66794;43.764;10.436;2023-06-26T01:02:04;6.43;;;5.70;;
77625;SDS011;66794;43.764;10.436;2023-06-26T01:04:49;8.15;;;6.15;;
77625;SDS011;66794;43.764;10.436;2023-06-26T01:07:36;7.65;;;5.40;;
77625;SDS011;66794;43.764;10.436;2023-06-26T01:10:23;7.50;;;5.70;;
77625;SDS011;66794;43.764;10.436;2023-06-26T01:13:09;8.63;;;6.03;;
77625;SDS011;66794;43.764;10.436;2023-06-26T01:15:55;9.80;;;5.75;;
77625;SDS011;66794;43.764;10.436;2023-06-26T01:18:44;9.20;;;6.20;;
77625;SDS011;66794;43.764;10.436;2023-06-26T01:21:30;7.82;;;5.88;;
77625;SDS011;66794;43.764;10.436;2023-06-26T01:24:17;8.52;;;5.60;;
77625;SDS011;66794;43.764;10.436;2023-06-26T01:27:12;7.25;;;5.60;;
77625;SDS011;66794;43.764;10.436;2023-06-26T01:30:00;11.52;;;6.10;;
77625;SDS011;66794;43.764;10.436;2023-06-26T01:32:51;8.48;;;5.18;;
77625;SDS011;66794;43.764;10.436;2023-06-26T01:35:37;9.48;;;6.18;;
77625;SDS011;66794;43.764;10.436;2023-06-26T01:38:24;8.70;;;6.20;;
77625;SDS011;66794;43.764;10.436;2023-06-26T01:41:11;9.43;;;6.30;;
77625;SDS011;66794;43.764;10.436;2023-06-26T01:47:09;8.85;;;6.47;;
77625;SDS011;66794;43.764;10.436;2023-06-26T01:50:04;8.52;;;5.55;;
77625;SDS011;66794;43.764;10.436;2023-06-26T01:53:06;12.27;;;6.43;;
77625;SDS011;66794;43.764;10.436;2023-06-26T01:55:55;9.20;;;5.88;;
77625;SDS011;66794;43.764;10.436;2023-06-26T01:58:50;10.70;;;6.47;;
77625;SDS011;66794;43.764;10.436;2023-06-26T02:01:40;9.00;;;6.57;;
77625;SDS011;66794;43.764;10.436;2023-06-26T02:04:26;8.60;;;6.70;;
77625;SDS011;66794;43.764;10.436;2023-06-26T02:07:12;8.30;;;5.82;;
77625;SDS011;66794;43.764;10.436;2023-06-26T02:09:58;8.32;;;5.70;;
77625;SDS011;66794;43.764;10.436;2023-06-26T02:12:43;8.13;;;6.50;;
77625;SDS011;66794;43.764;10.436;2023-06-26T02:15:29;7.72;;;5.40;;
77625;SDS011;66794;43.764;10.436;2023-06-26T02:18:15;7.05;;;5.75;;
77625;SDS011;66794;43.764;10.436;2023-06-26T02:21:02;8.77;;;5.68;;
77625;SDS011;66794;43.764;10.436;2023-06-26T02:23:49;9.77;;;5.30;;
77625;SDS011;66794;43.764;10.436;2023-06-26T02:26:35;9.52;;;5.43;;
77625;SDS011;66794;43.764;10.436;2023-06-26T02:29:20;7.03;;;5.68;;
77625;SDS011;66794;43.764;10.436;2023-06-26T02:32:06;8.70;;;5.93;;
77625;SDS011;66794;43.764;10.436;2023-06-26T02:34:53;9.98;;;6.40;;
77625;SDS011;66794;43.764;10.436;2023-06-26T02:37:39;8.32;;;6.10;;
77625;SDS011;66794;43.764;10.436;2023-06-26T02:40:24;8.10;;;6.40;;
77625;SDS011;66794;43.764;10.436;2023-06-26T02:43:10;8.13;;;6.47;;
77625;SDS011;66794;43.764;10.436;2023-06-26T02:45:56;10.38;;;6.95;;
77625;SDS011;66794;43.764;10.436;2023-06-26T02:48:42;9.35;;;7.30;;
77625;SDS011;66794;43.764;10.436;2023-06-26T02:51:27;10.45;;;7.15;;
77625;SDS011;66794;43.764;10.436;2023-06-26T02:54:13;9.20;;;7.38;;
77625;SDS011;66794;43.764;10.436;2023-06-26T02:56:59;10.15;;;7.38;;
77625;SDS011;66794;43.764;10.436;2023-06-26T02:59:44;8.30;;;7.05;;
77625;SDS011;66794;43.764;10.436;2023-06-26T03:02:30;11.23;;;7.70;;
77625;SDS011;66794;43.764;10.436;2023-06-26T03:05:16;11.55;;;7.75;;
77625;SDS011;66794;43.764;10.436;2023-06-26T03:08:02;10.65;;;7.03;;
77625;SDS011;66794;43.764;10.436;2023-06-26T03:10:48;10.05;;;6.72;;
77625;SDS011;66794;43.764;10.436;2023-06-26T03:13:34;9.88;;;7.05;;
77625;SDS011;66794;43.764;10.436;2023-06-26T03:16:21;9.60;;;7.05;;
77625;SDS011;66794;43.764;10.436;2023-06-26T03:19:06;15.02;;;6.72;;
77625;SDS011;66794;43.764;10.436;2023-06-26T03:21:52;10.43;;;7.03;;
77625;SDS011;66794;43.764;10.436;2023-06-26T03:24:38;13.38;;;6.32;;
77625;SDS011;66794;43.764;10.436;2023-06-26T03:27:24;11.02;;;6.38;;
77625;SDS011;66794;43.764;10.436;2023-06-26T03:30:10;10.60;;;7.03;;
77625;SDS011;66794;43.764;10.436;2023-06-26T03:32:56;9.55;;;6.78;;
77625;SDS011;66794;43.764;10.436;2023-06-26T03:35:42;9.95;;;6.63;;
77625;SDS011;66794;43.764;10.436;2023-06-26T03:38:27;10.65;;;6.68;;
77625;SDS011;66794;43.764;10.436;2023-06-26T03:41:13;13.95;;;7.30;;
77625;SDS011;66794;43.764;10.436;2023-06-26T03:43:59;12.75;;;7.03;;
77625;SDS011;66794;43.764;10.436;2023-06-26T03:46:46;14.00;;;6.80;;
77625;SDS011;66794;43.764;10.436;2023-06-26T03:49:32;9.55;;;6.50;;
77625;SDS011;66794;43.764;10.436;2023-06-26T03:52:18;9.90;;;6.43;;
77625;SDS011;66794;43.764;10.436;2023-06-26T03:55:03;8.57;;;6.22;;
77625;SDS011;66794;43.764;10.436;2023-06-26T03:57:50;9.05;;;6.10;;
77625;SDS011;66794;43.764;10.436;2023-06-26T04:00:35;11.57;;;6.50;;
77625;SDS011;66794;43.764;10.436;2023-06-26T04:03:21;9.75;;;6.35;;
77625;SDS011;66794;43.764;10.436;2023-06-26T04:06:07;8.07;;;6.15;;
77625;SDS011;66794;43.764;10.436;2023-06-26T04:08:53;7.45;;;6.47;;
77625;SDS011;66794;43.764;10.436;2023-06-26T04:11:38;7.95;;;7.15;;
77625;SDS011;66794;43.764;10.436;2023-06-26T04:14:24;8.02;;;6.72;;
77625;SDS011;66794;43.764;10.436;2023-06-26T04:17:10;9.88;;;6.85;;
77625;SDS011;66794;43.764;10.436;2023-06-26T04:19:56;10.68;;;6.72;;
77625;SDS011;66794;43.764;10.436;2023-06-26T04:22:41;17.70;;;7.50;;
77625;SDS011;66794;43.764;10.436;2023-06-26T04:25:27;11.63;;;7.63;;
77625;SDS011;66794;43.764;10.436;2023-06-26T04:28:14;11.10;;;7.20;;
77625;SDS011;66794;43.764;10.436;2023-06-26T04:31:00;11.00;;;7.43;;
77625;SDS011;66794;43.764;10.436;2023-06-26T04:33:47;10.73;;;7.40;;
77625;SDS011;66794;43.764;10.436;2023-06-26T04:36:36;14.43;;;7.55;;
77625;SDS011;66794;43.764;10.436;2023-06-26T04:39:24;11.63;;;8.10;;
77625;SDS011;66794;43.764;10.436;2023-06-26T04:42:10;10.98;;;7.38;;
77625;SDS011;66794;43.764;10.436;2023-06-26T04:44:57;14.35;;;7.55;;
77625;SDS011;66794;43.764;10.436;2023-06-26T04:47:43;9.25;;;7.93;;
77625;SDS011;66794;43.764;10.436;2023-06-26T04:50:30;8.77;;;7.50;;
77625;SDS011;66794;43.764;10.436;2023-06-26T04:53:16;16.30;;;7.97;;
77625;SDS011;66794;43.764;10.436;2023-06-26T04:56:01;9.63;;;7.95;;
77625;SDS011;66794;43.764;10.436;2023-06-26T04:58:47;10.52;;;7.75;;
77625;SDS011;66794;43.764;10.436;2023-06-26T05:01:33;13.82;;;8.52;;
77625;SDS011;66794;43.764;10.436;2023-06-26T05:04:19;13.68;;;8.07;;
77625;SDS011;66794;43.764;10.436;2023-06-26T05:07:04;14.82;;;8.52;;
77625;SDS011;66794;43.764;10.436;2023-06-26T05:09:50;13.45;;;8.70;;
77625;SDS011;66794;43.764;10.436;2023-06-26T05:12:36;11.07;;;9.15;;
77625;SDS011;66794;43.764;10.436;2023-06-26T05:15:22;14.93;;;9.52;;
77625;SDS011;66794;43.764;10.436;2023-06-26T05:18:08;13.57;;;9.98;;
77625;SDS011;66794;43.764;10.436;2023-06-26T05:20:53;15.43;;;10.13;;
77625;SDS011;66794;43.764;10.436;2023-06-26T05:23:39;13.50;;;9.63;;
77625;SDS011;66794;43.764;10.436;2023-06-26T05:26:26;13.73;;;9.52;;
77625;SDS011;66794;43.764;10.436;2023-06-26T05:29:12;12.80;;;9.20;;
77625;SDS011;66794;43.764;10.436;2023-06-26T05:31:58;14.95;;;9.95;;
77625;SDS011;66794;43.764;10.436;2023-06-26T05:34:47;14.40;;;10.43;;
77625;SDS011;66794;43.764;10.436;2023-06-26T05:37:34;15.73;;;10.88;;
77625;SDS011;66794;43.764;10.436;2023-06-26T05:40:20;13.13;;;10.13;;
77625;SDS011;66794;43.764;10.436;2023-06-26T05:43:06;11.60;;;9.80;;
77625;SDS011;66794;43.764;10.436;2023-06-26T05:45:52;16.58;;;11.52;;
77625;SDS011;66794;43.764;10.436;2023-06-26T05:48:38;16.90;;;12.10;;
77625;SDS011;66794;43.764;10.436;2023-06-26T05:51:24;16.33;;;12.15;;
77625;SDS011;66794;43.764;10.436;2023-06-26T05:54:11;21.30;;;12.82;;
77625;SDS011;66794;43.764;10.436;2023-06-26T05:56:58;19.63;;;13.27;;
77625;SDS011;66794;43.764;10.436;2023-06-26T05:59:44;17.33;;;13.68;;
77625;SDS011;66794;43.764;10.436;2023-06-26T06:02:30;19.35;;;13.63;;
77625;SDS011;66794;43.764;10.436;2023-06-26T06:05:16;20.08;;;12.57;;
77625;SDS011;66794;43.764;10.436;2023-06-26T06:08:02;18.48;;;13.20;;
77625;SDS011;66794;43.764;10.436;2023-06-26T06:10:48;15.38;;;11.15;;
77625;SDS011;66794;43.764;10.436;2023-06-26T06:13:34;15.43;;;12.10;;
77625;SDS011;66794;43.764;10.436;2023-06-26T06:16:19;15.38;;;11.77;;
77625;SDS011;66794;43.764;10.436;2023-06-26T06:19:05;13.63;;;10.85;;
77625;SDS011;66794;43.764;10.436;2023-06-26T06:21:53;21.85;;;13.93;;
77625;SDS011;66794;43.764;10.436;2023-06-26T06:24:39;21.17;;;14.70;;
77625;SDS011;66794;43.764;10.436;2023-06-26T06:27:24;19.10;;;11.90;;
77625;SDS011;66794;43.764;10.436;2023-06-26T06:30:10;21.23;;;12.18;;
77625;SDS011;66794;43.764;10.436;2023-06-26T06:32:57;24.80;;;12.40;;
77625;SDS011;66794;43.764;10.436;2023-06-26T06:35:43;15.15;;;11.25;;
77625;SDS011;66794;43.764;10.436;2023-06-26T06:38:29;12.90;;;11.05;;
77625;SDS011;66794;43.764;10.436;2023-06-26T06:41:15;12.68;;;10.80;;
77625;SDS011;66794;43.764;10.436;2023-06-26T06:44:01;12.82;;;10.70;;
77625;SDS011;66794;43.764;10.436;2023-06-26T06:46:47;11.80;;;9.40;;
77625;SDS011;66794;43.764;10.436;2023-06-26T06:49:33;16.38;;;9.93;;
77625;SDS011;66794;43.764;10.436;2023-06-26T06:52:19;14.75;;;10.43;;
77625;SDS011;66794;43.764;10.436;2023-06-26T06:55:05;12.88;;;9.85;;
77625;SDS011;66794;43.764;10.436;2023-06-26T06:57:53;12.32;;;9.50;;
77625;SDS011;66794;43.764;10.436;2023-06-26T07:00:39;12.73;;;9.63;;
77625;SDS011;66794;43.764;10.436;2023-06-26T07:03:25;10.27;;;8.88;;
77625;SDS011;66794;43.764;10.436;2023-06-26T07:06:11;11.57;;;8.73;;
77625;SDS011;66794;43.764;10.436;2023-06-26T07:08:36;13.18;;;8.65;;
77625;SDS011;66794;43.764;10.436;2023-06-26T07:11:02;11.13;;;8.57;;
77625;SDS011;66794;43.764;10.436;2023-06-26T07:13:28;15.15;;;8.55;;
77625;SDS011;66794;43.764;10.436;2023-06-26T07:15:53;13.48;;;9.63;;
77625;SDS011;66794;43.764;10.436;2023-06-26T07:18:19;11.70;;;8.77;;
77625;SDS011;66794;43.764;10.436;2023-06-26T07:20:44;11.48;;;8.70;;
77625;SDS011;66794;43.764;10.436;2023-06-26T07:23:10;38.58;;;29.40;;
77625;SDS011;66794;43.764;10.436;2023-06-26T07:25:36;14.90;;;11.65;;
77625;SDS011;66794;43.764;10.436;2023-06-26T07:28:01;12.35;;;9.45;;
77625;SDS011;66794;43.764;10.436;2023-06-26T07:30:27;13.00;;;9.18;;
77625;SDS011;66794;43.764;10.436;2023-06-26T07:32:53;11.00;;;8.73;;
77625;SDS011;66794;43.764;10.436;2023-06-26T07:35:18;13.80;;;8.57;;
77625;SDS011;66794;43.764;10.436;2023-06-26T07:37:44;12.95;;;8.27;;
77625;SDS011;66794;43.764;10.436;2023-06-26T07:40:09;15.38;;;9.05;;
77625;SDS011;66794;43.764;10.436;2023-06-26T07:42:35;10.50;;;8.77;;
77625;SDS011;66794;43.764;10.436;2023-06-26T07:45:01;10.23;;;8.95;;
77625;SDS011;66794;43.764;10.436;2023-06-26T07:47:33;11.68;;;8.38;;
77625;SDS011;66794;43.764;10.436;2023-06-26T07:49:58;13.05;;;9.65;;
77625;SDS011;66794;43.764;10.436;2023-06-26T07:52:23;10.85;;;9.15;;
77625;SDS011;66794;43.764;10.436;2023-06-26T07:54:49;10.48;;;8.73;;
77625;SDS011;66794;43.764;10.436;2023-06-26T07:57:14;9.55;;;7.93;;
77625;SDS011;66794;43.764;10.436;2023-06-26T07:59:40;12.80;;;8.65;;
77625;SDS011;66794;43.764;10.436;2023-06-26T08:02:05;9.15;;;7.53;;
77625;SDS011;66794;43.764;10.436;2023-06-26T08:04:31;12.13;;;8.63;;
77625;SDS011;66794;43.764;10.436;2023-06-26T08:06:58;11.45;;;8.60;;
77625;SDS011;66794;43.764;10.436;2023-06-26T08:09:26;12.93;;;8.25;;
77625;SDS011;66794;43.764;10.436;2023-06-26T08:11:53;9.65;;;7.88;;
77625;SDS011;66794;43.764;10.436;2023-06-26T08:14:19;12.65;;;8.15;;
77625;SDS011;66794;43.764;10.436;2023-06-26T08:16:45;11.18;;;7.75;;
77625;SDS011;66794;43.764;10.436;2023-06-26T08:19:12;11.68;;;8.07;;
77625;SDS011;66794;43.764;10.436;2023-06-26T08:21:38;9.88;;;7.07;;
77625;SDS011;66794;43.764;10.436;2023-06-26T08:24:06;10.45;;;7.53;;
77625;SDS011;66794;43.764;10.436;2023-06-26T08:26:32;9.68;;;7.50;;
77625;SDS011;66794;43.764;10.436;2023-06-26T08:28:58;11.77;;;7.35;;
77625;SDS011;66794;43.764;10.436;2023-06-26T08:31:24;8.35;;;6.75;;
77625;SDS011;66794;43.764;10.436;2023-06-26T08:33:49;8.77;;;6.72;;
77625;SDS011;66794;43.764;10.436;2023-06-26T08:36:16;9.88;;;6.75;;
77625;SDS011;66794;43.764;10.436;2023-06-26T08:38:41;8.13;;;6.32;;
77625;SDS011;66794;43.764;10.436;2023-06-26T08:41:07;7.53;;;6.72;;
77625;SDS011;66794;43.764;10.436;2023-06-26T08:43:34;8.10;;;6.18;;
77625;SDS011;66794;43.764;10.436;2023-06-26T08:46:00;10.77;;;6.80;;
77625;SDS011;66794;43.764;10.436;2023-06-26T08:48:26;14.00;;;6.55;;
77625;SDS011;66794;43.764;10.436;2023-06-26T08:50:53;8.65;;;6.35;;
77625;SDS011;66794;43.764;10.436;2023-06-26T08:53:25;7.97;;;5.47;;
77625;SDS011;66794;43.764;10.436;2023-06-26T08:55:52;6.03;;;5.43;;
77625;SDS011;66794;43.764;10.436;2023-06-26T08:58:19;7.47;;;6.10;;
77625;SDS011;66794;43.764;10.436;2023-06-26T09:00:45;10.20;;;5.95;;
77625;SDS011;66794;43.764;10.436;2023-06-26T09:03:11;7.28;;;5.65;;
77625;SDS011;66794;43.764;10.436;2023-06-26T09:05:38;8.38;;;5.53;;
77625;SDS011;66794;43.764;10.436;2023-06-26T09:08:03;7.13;;;5.68;;
77625;SDS011;66794;43.764;10.436;2023-06-26T09:10:29;7.43;;;6.07;;
77625;SDS011;66794;43.764;10.436;2023-06-26T09:12:57;9.48;;;6.43;;
77625;SDS011;66794;43.764;10.436;2023-06-26T09:15:23;8.45;;;6.35;;
77625;SDS011;66794;43.764;10.436;2023-06-26T09:17:49;7.03;;;6.32;;
77625;SDS011;66794;43.764;10.436;2023-06-26T09:20:15;10.27;;;6.63;;
77625;SDS011;66794;43.764;10.436;2023-06-26T09:22:41;9.38;;;6.22;;
77625;SDS011;66794;43.764;10.436;2023-06-26T09:25:08;9.75;;;6.40;;
77625;SDS011;66794;43.764;10.436;2023-06-26T09:27:34;8.55;;;6.43;;
77625;SDS011;66794;43.764;10.436;2023-06-26T09:30:04;13.27;;;6.70;;
77625;SDS011;66794;43.764;10.436;2023-06-26T09:32:35;10.55;;;6.45;;
77625;SDS011;66794;43.764;10.436;2023-06-26T09:35:04;7.40;;;6.00;;
77625;SDS011;66794;43.764;10.436;2023-06-26T09:37:29;8.93;;;6.72;;
77625;SDS011;66794;43.764;10.436;2023-06-26T09:39:55;8.73;;;5.97;;
77625;SDS011;66794;43.764;10.436;2023-06-26T09:42:21;10.73;;;6.60;;
77625;SDS011;66794;43.764;10.436;2023-06-26T09:44:47;12.32;;;10.88;;
77625;SDS011;66794;43.764;10.436;2023-06-26T09:47:18;9.40;;;6.65;;
77625;SDS011;66794;43.764;10.436;2023-06-26T09:49:44;12.05;;;6.10;;
77625;SDS011;66794;43.764;10.436;2023-06-26T09:52:11;9.98;;;6.50;;
77625;SDS011;66794;43.764;10.436;2023-06-26T09:54:45;11.63;;;6.90;;
77625;SDS011;66794;43.764;10.436;2023-06-26T09:57:11;10.90;;;6.50;;
77625;SDS011;66794;43.764;10.436;2023-06-26T09:59:38;7.78;;;5.78;;
77625;SDS011;66794;43.764;10.436;2023-06-26T10:02:05;8.65;;;5.90;;
77625;SDS011;66794;43.764;10.436;2023-06-26T10:04:31;8.85;;;6.18;;
77625;SDS011;66794;43.764;10.436;2023-06-26T10:06:57;8.15;;;6.65;;
77625;SDS011;66794;43.764;10.436;2023-06-26T10:09:26;12.55;;;6.13;;
77625;SDS011;66794;43.764;10.436;2023-06-26T10:12:02;7.00;;;6.22;;
77625;SDS011;66794;43.764;10.436;2023-06-26T10:14:35;8.15;;;6.22;;
77625;SDS011;66794;43.764;10.436;2023-06-26T10:17:03;6.53;;;5.93;;
77625;SDS011;66794;43.764;10.436;2023-06-26T10:19:32;8.02;;;6.30;;
77625;SDS011;66794;43.764;10.436;2023-06-26T10:21:59;10.60;;;6.30;;
77625;SDS011;66794;43.764;10.436;2023-06-26T10:24:29;8.02;;;6.40;;
77625;SDS011;66794;43.764;10.436;2023-06-26T10:27:32;10.07;;;6.20;;
77625;SDS011;66794;43.764;10.436;2023-06-26T10:29:53;10.03;;;6.43;;
77625;SDS011;66794;43.764;10.436;2023-06-26T10:32:21;6.88;;;6.13;;
77625;SDS011;66794;43.764;10.436;2023-06-26T10:34:50;7.97;;;6.28;;
77625;SDS011;66794;43.764;10.436;2023-06-26T10:37:16;9.10;;;6.45;;
77625;SDS011;66794;43.764;10.436;2023-06-26T10:39:51;7.00;;;6.30;;
77625;SDS011;66794;43.764;10.436;2023-06-26T10:42:20;6.80;;;5.85;;
77625;SDS011;66794;43.764;10.436;2023-06-26T10:45:11;10.45;;;6.07;;
77625;SDS011;66794;43.764;10.436;2023-06-26T10:47:39;8.73;;;6.65;;
77625;SDS011;66794;43.764;10.436;2023-06-26T10:55:48;9.52;;;6.00;;
77625;SDS011;66794;43.764;10.436;2023-06-26T10:58:32;6.30;;;5.70;;
77625;SDS011;66794;43.764;10.436;2023-06-26T11:03:36;8.80;;;6.07;;
77625;SDS011;66794;43.764;10.436;2023-06-26T11:06:09;7.53;;;5.53;;
77625;SDS011;66794;43.764;10.436;2023-06-26T11:11:15;9.57;;;5.82;;
77625;SDS011;66794;43.764;10.436;2023-06-26T11:13:41;8.23;;;5.53;;
77625;SDS011;66794;43.764;10.436;2023-06-26T11:16:07;10.80;;;5.88;;
77625;SDS011;66794;43.764;10.436;2023-06-26T11:18:33;6.63;;;5.60;;
77625;SDS011;66794;43.764;10.436;2023-06-26T11:21:08;7.78;;;6.18;;
77625;SDS011;66794;43.764;10.436;2023-06-26T11:23:35;6.63;;;5.40;;
77625;SDS011;66794;43.764;10.436;2023-06-26T11:26:14;10.95;;;5.57;;
77625;SDS011;66794;43.764;10.436;2023-06-26T11:31:27;6.80;;;6.10;;
77625;SDS011;66794;43.764;10.436;2023-06-26T11:34:00;8.45;;;5.60;;
77625;SDS011;66794;43.764;10.436;2023-06-26T11:36:28;8.45;;;5.47;;
77625;SDS011;66794;43.764;10.436;2023-06-26T11:38:58;9.95;;;5.72;;
77625;SDS011;66794;43.764;10.436;2023-06-26T11:41:29;10.65;;;5.75;;
77625;SDS011;66794;43.764;10.436;2023-06-26T11:43:59;6.07;;;5.18;;
77625;SDS011;66794;43.764;10.436;2023-06-26T11:46:26;7.30;;;5.55;;
77625;SDS011;66794;43.764;10.436;2023-06-26T11:48:51;9.32;;;5.60;;
77625;SDS011;66794;43.764;10.436;2023-06-26T11:51:17;13.35;;;5.85;;
77625;SDS011;66794;43.764;10.436;2023-06-26T11:53:43;6.95;;;5.63;;
77625;SDS011;66794;43.764;10.436;2023-06-26T11:56:10;9.75;;;5.53;;
77625;SDS011;66794;43.764;10.436;2023-06-26T12:01:43;6.75;;;5.25;;
77625;SDS011;66794;43.764;10.436;2023-06-26T12:04:13;7.50;;;6.28;;
77625;SDS011;66794;43.764;10.436;2023-06-26T12:06:42;7.75;;;5.07;;
77625;SDS011;66794;43.764;10.436;2023-06-26T12:09:11;8.07;;;5.65;;
77625;SDS011;66794;43.764;10.436;2023-06-26T12:11:43;7.35;;;5.80;;
77625;SDS011;66794;43.764;10.436;2023-06-26T12:14:09;7.85;;;5.72;;
77625;SDS011;66794;43.764;10.436;2023-06-26T12:16:36;8.77;;;5.45;;
77625;SDS011;66794;43.764;10.436;2023-06-26T12:19:04;8.32;;;5.45;;
77625;SDS011;66794;43.764;10.436;2023-06-26T12:24:03;7.78;;;5.55;;
77625;SDS011;66794;43.764;10.436;2023-06-26T12:26:29;6.45;;;5.70;;
77625;SDS011;66794;43.764;10.436;2023-06-26T12:29:01;7.53;;;5.75;;
77625;SDS011;66794;43.764;10.436;2023-06-26T12:31:28;8.15;;;5.45;;
77625;SDS011;66794;43.764;10.436;2023-06-26T12:33:53;5.85;;;4.97;;
77625;SDS011;66794;43.764;10.436;2023-06-26T12:36:19;7.03;;;5.60;;
77625;SDS011;66794;43.764;10.436;2023-06-26T12:38:45;9.45;;;5.80;;
77625;SDS011;66794;43.764;10.436;2023-06-26T12:41:14;7.00;;;5.30;;
77625;SDS011;66794;43.764;10.436;2023-06-26T12:43:41;9.02;;;5.60;;
77625;SDS011;66794;43.764;10.436;2023-06-26T12:46:06;10.93;;;5.78;;
77625;SDS011;66794;43.764;10.436;2023-06-26T12:48:44;11.73;;;6.95;;
77625;SDS011;66794;43.764;10.436;2023-06-26T12:51:15;8.52;;;5.85;;
77625;SDS011;66794;43.764;10.436;2023-06-26T12:53:42;6.72;;;5.25;;
77625;SDS011;66794;43.764;10.436;2023-06-26T12:56:08;7.97;;;5.38;;
77625;SDS011;66794;43.764;10.436;2023-06-26T12:58:34;6.35;;;5.43;;
77625;SDS011;66794;43.764;10.436;2023-06-26T13:01:04;6.72;;;5.07;;
77625;SDS011;66794;43.764;10.436;2023-06-26T13:03:39;9.02;;;5.63;;
77625;SDS011;66794;43.764;10.436;2023-06-26T13:06:07;6.10;;;5.47;;
77625;SDS011;66794;43.764;10.436;2023-06-26T13:08:33;7.40;;;5.32;;
77625;SDS011;66794;43.764;10.436;2023-06-26T13:10:59;7.55;;;5.40;;
77625;SDS011;66794;43.764;10.436;2023-06-26T13:13:24;7.43;;;5.13;;
77625;SDS011;66794;43.764;10.436;2023-06-26T13:15:50;6.35;;;5.07;;
77625;SDS011;66794;43.764;10.436;2023-06-26T13:18:16;6.05;;;5.13;;
77625;SDS011;66794;43.764;10.436;2023-06-26T13:20:41;10.38;;;5.10;;
77625;SDS011;66794;43.764;10.436;2023-06-26T13:23:07;12.63;;;5.07;;
77625;SDS011;66794;43.764;10.436;2023-06-26T13:25:32;6.80;;;5.35;;
77625;SDS011;66794;43.764;10.436;2023-06-26T13:27:58;11.07;;;6.03;;
77625;SDS011;66794;43.764;10.436;2023-06-26T13:30:23;8.90;;;5.38;;
77625;SDS011;66794;43.764;10.436;2023-06-26T13:32:49;7.85;;;5.20;;
77625;SDS011;66794;43.764;10.436;2023-06-26T13:35:15;6.57;;;5.50;;
77625;SDS011;66794;43.764;10.436;2023-06-26T13:37:41;8.43;;;5.25;;
77625;SDS011;66794;43.764;10.436;2023-06-26T13:40:08;6.68;;;5.03;;
77625;SDS011;66794;43.764;10.436;2023-06-26T13:42:34;6.38;;;5.10;;
77625;SDS011;66794;43.764;10.436;2023-06-26T13:45:01;6.43;;;5.35;;
77625;SDS011;66794;43.764;10.436;2023-06-26T13:47:28;9.18;;;5.13;;
77625;SDS011;66794;43.764;10.436;2023-06-26T13:49:53;8.65;;;4.93;;
77625;SDS011;66794;43.764;10.436;2023-06-26T13:52:19;7.00;;;4.75;;
77625;SDS011;66794;43.764;10.436;2023-06-26T13:54:44;7.97;;;5.18;;
77625;SDS011;66794;43.764;10.436;2023-06-26T13:57:10;5.85;;;5.03;;
77625;SDS011;66794;43.764;10.436;2023-06-26T13:59:37;8.30;;;4.93;;
77625;SDS011;66794;43.764;10.436;2023-06-26T14:02:04;5.85;;;5.10;;
77625;SDS011;66794;43.764;10.436;2023-06-26T14:04:31;8.73;;;5.65;;
77625;SDS011;66794;43.764;10.436;2023-06-26T14:06:57;10.30;;;5.30;;
77625;SDS011;66794;43.764;10.436;2023-06-26T14:09:23;13.32;;;5.70;;
77625;SDS011;66794;43.764;10.436;2023-06-26T14:11:48;7.65;;;5.30;;
77625;SDS011;66794;43.764;10.436;2023-06-26T14:14:14;11.52;;;5.88;;
77625;SDS011;66794;43.764;10.436;2023-06-26T14:16:39;9.05;;;5.97;;
77625;SDS011;66794;43.764;10.436;2023-06-26T14:19:05;9.88;;;5.55;;
77625;SDS011;66794;43.764;10.436;2023-06-26T14:21:31;7.90;;;5.68;;
77625;SDS011;66794;43.764;10.436;2023-06-26T14:23:58;12.95;;;5.43;;
77625;SDS011;66794;43.764;10.436;2023-06-26T14:26:23;6.13;;;4.97;;
77625;SDS011;66794;43.764;10.436;2023-06-26T14:28:49;12.48;;;5.47;;
77625;SDS011;66794;43.764;10.436;2023-06-26T14:31:15;9.25;;;5.75;;
77625;SDS011;66794;43.764;10.436;2023-06-26T14:33:40;7.93;;;5.22;;
77625;SDS011;66794;43.764;10.436;2023-06-26T14:36:06;6.47;;;5.45;;
77625;SDS011;66794;43.764;10.436;2023-06-26T14:38:31;8.15;;;5.90;;
77625;SDS011;66794;43.764;10.436;2023-06-26T14:40:57;7.97;;;5.43;;
77625;SDS011;66794;43.764;10.436;2023-06-26T14:43:22;7.65;;;5.45;;
77625;SDS011;66794;43.764;10.436;2023-06-26T14:45:49;12.77;;;5.47;;
77625;SDS011;66794;43.764;10.436;2023-06-26T14:48:15;10.38;;;5.20;;
77625;SDS011;66794;43.764;10.436;2023-06-26T14:50:40;8.05;;;5.57;;
77625;SDS011;66794;43.764;10.436;2023-06-26T14:53:05;8.38;;;5.85;;
77625;SDS011;66794;43.764;10.436;2023-06-26T14:55:31;9.18;;;5.93;;
77625;SDS011;66794;43.764;10.436;2023-06-26T14:57:56;11.90;;;5.78;;
77625;SDS011;66794;43.764;10.436;2023-06-26T15:00:22;8.20;;;5.88;;
77625;SDS011;66794;43.764;10.436;2023-06-26T15:02:49;10.95;;;5.65;;
77625;SDS011;66794;43.764;10.436;2023-06-26T15:05:14;8.93;;;5.68;;
77625;SDS011;66794;43.764;10.436;2023-06-26T15:07:40;7.10;;;5.32;;
77625;SDS011;66794;43.764;10.436;2023-06-26T15:10:05;7.15;;;5.60;;
77625;SDS011;66794;43.764;10.436;2023-06-26T15:12:31;13.40;;;5.93;;
77625;SDS011;66794;43.764;10.436;2023-06-26T15:14:57;8.30;;;5.70;;
77625;SDS011;66794;43.764;10.436;2023-06-26T15:17:23;11.50;;;5.70;;
77625;SDS011;66794;43.764;10.436;2023-06-26T15:19:48;9.20;;;5.28;;
77625;SDS011;66794;43.764;10.436;2023-06-26T15:22:17;7.13;;;5.72;;
77625;SDS011;66794;43.764;10.436;2023-06-26T15:24:42;7.90;;;5.43;;
77625;SDS011;66794;43.764;10.436;2023-06-26T15:27:08;8.43;;;5.70;;
77625;SDS011;66794;43.764;10.436;2023-06-26T15:29:34;9.63;;;5.65;;
77625;SDS011;66794;43.764;10.436;2023-06-26T15:31:59;7.68;;;5.10;;
77625;SDS011;66794;43.764;10.436;2023-06-26T15:34:25;11.27;;;5.90;;
77625;SDS011;66794;43.764;10.436;2023-06-26T15:36:50;8.07;;;5.80;;
77625;SDS011;66794;43.764;10.436;2023-06-26T15:39:16;9.13;;;5.38;;